createdAt,value
2023-04-03T00:02:10.125Z,2.60
2023-04-03T00:05:11.853Z,2.50
2023-04-03T00:08:13.766Z,2.60
2023-04-03T00:11:16.263Z,2.60
2023-04-03T00:14:18.230Z,2.60
2023-04-03T00:17:19.976Z,2.50
2023-04-03T00:20:22.173Z,2.60
2023-04-03T00:23:24.785Z,2.60
2023-04-03T00:26:26.583Z,2.60
2023-04-03T00:29:28.306Z,2.50
2023-04-03T00:32:30.087Z,2.50
2023-04-03T00:35:31.911Z,2.60
2023-04-03T00:38:33.818Z,2.60
2023-04-03T00:41:36.201Z,2.50
2023-04-03T00:44:37.848Z,2.50
2023-04-03T00:47:41.905Z,2.50
2023-04-03T00:50:45.455Z,2.50
2023-04-03T00:53:54.120Z,2.50
2023-04-03T00:56:57.943Z,2.50
2023-04-03T01:00:05.765Z,2.40
2023-04-03T01:03:07.553Z,2.40
2023-04-03T01:06:09.396Z,2.30
2023-04-03T01:09:11.222Z,2.30
2023-04-03T01:12:27.031Z,2.30
2023-04-03T01:15:35.818Z,2.20
2023-04-03T01:18:41.082Z,2.20
2023-04-03T01:22:14.222Z,2.10
2023-04-03T01:25:16.118Z,2.10
2023-04-03T01:28:21.569Z,2.10
2023-04-03T01:31:30.478Z,2.10
2023-04-03T01:34:32.502Z,2.10
2023-04-03T01:37:34.267Z,2.00
2023-04-03T01:40:36.379Z,2.00
2023-04-03T01:43:38.380Z,2.00
2023-04-03T01:46:40.430Z,1.90
2023-04-03T01:49:42.329Z,1.90
2023-04-03T01:52:44.333Z,1.90
2023-04-03T01:55:46.233Z,1.90
2023-04-03T01:58:48.070Z,1.80
2023-04-03T02:01:50.481Z,1.80
2023-04-03T02:04:52.267Z,1.70
2023-04-03T02:07:54.384Z,1.70
2023-04-03T02:10:56.215Z,1.70
2023-04-03T02:13:58.159Z,1.60
2023-04-03T02:17:02.129Z,1.50
2023-04-03T02:20:04.615Z,1.50
2023-04-03T02:23:06.778Z,1.50
2023-04-03T02:26:15.424Z,1.40
2023-04-03T02:29:17.211Z,1.40
2023-04-03T02:32:18.947Z,1.40
2023-04-03T02:35:21.484Z,1.40
2023-04-03T02:38:24.510Z,1.40
2023-04-03T02:41:28.820Z,1.40
2023-04-03T02:44:30.666Z,1.30
2023-04-03T02:47:32.474Z,1.30
2023-04-03T02:50:35.006Z,1.30
2023-04-03T02:53:36.996Z,1.30
2023-04-03T02:56:39.056Z,1.30
2023-04-03T02:59:41.717Z,1.30
2023-04-03T03:02:43.541Z,1.30
2023-04-03T03:05:45.282Z,1.30
2023-04-03T03:08:47.038Z,1.30
2023-04-03T03:11:48.780Z,1.30
2023-04-03T03:14:50.833Z,1.30
2023-04-03T03:17:52.633Z,1.30
2023-04-03T03:20:56.156Z,1.30
2023-04-03T03:23:57.948Z,1.30
2023-04-03T03:26:59.784Z,1.40
2023-04-03T03:30:01.578Z,1.30
2023-04-03T03:33:03.489Z,1.30
2023-04-03T03:36:05.550Z,1.30
2023-04-03T03:39:07.364Z,1.30
2023-04-03T03:42:09.128Z,1.30
2023-04-03T03:45:11.551Z,1.30
2023-04-03T03:48:13.448Z,1.20
2023-04-03T03:51:15.343Z,1.20
2023-04-03T03:54:17.180Z,1.20
2023-04-03T03:57:19.064Z,1.10
2023-04-03T04:00:21.279Z,1.10
2023-04-03T04:03:23.200Z,1.10
2023-04-03T04:06:25.152Z,1.00
2023-04-03T04:09:27.272Z,0.90
2023-04-03T04:12:29.036Z,0.90
2023-04-03T04:15:31.020Z,0.80
2023-04-03T04:18:33.035Z,0.80
2023-04-03T04:21:34.843Z,0.70
2023-04-03T04:24:38.456Z,0.70
2023-04-03T04:27:41.176Z,0.70
2023-04-03T04:30:43.206Z,0.60
2023-04-03T04:33:45.051Z,0.60
2023-04-03T04:36:46.961Z,0.50
2023-04-03T04:39:48.790Z,0.50
2023-04-03T04:42:50.720Z,0.40
2023-04-03T04:46:05.169Z,0.40
2023-04-03T04:49:07.137Z,0.40
2023-04-03T04:52:09.056Z,0.40
2023-04-03T04:55:10.881Z,0.30
2023-04-03T04:58:12.678Z,0.40
2023-04-03T05:01:14.501Z,0.30
2023-04-03T05:04:16.872Z,0.30
2023-04-03T05:07:18.765Z,0.30
2023-04-03T05:10:22.256Z,0.30
2023-04-03T05:13:24.107Z,0.30
2023-04-03T05:16:26.587Z,0.30
2023-04-03T05:19:28.421Z,0.30
2023-04-03T05:22:30.215Z,0.40
2023-04-03T05:25:31.944Z,0.40
2023-04-03T05:28:34.012Z,0.40
2023-04-03T05:31:36.071Z,0.40
2023-04-03T05:34:38.349Z,0.40
2023-04-03T05:37:41.113Z,0.50
2023-04-03T05:40:43.237Z,0.50
2023-04-03T05:43:45.235Z,0.50
2023-04-03T05:46:47.047Z,0.60
2023-04-03T05:49:48.986Z,0.60
2023-04-03T05:52:53.768Z,0.70
2023-04-03T05:55:55.697Z,0.60
2023-04-03T05:58:57.940Z,0.60
2023-04-03T06:01:59.857Z,0.60
2023-04-03T06:05:02.105Z,0.60
2023-04-03T06:08:04.256Z,0.60
2023-04-03T06:11:06.168Z,0.60
2023-04-03T06:14:08.415Z,0.60
2023-04-03T06:17:10.285Z,0.60
2023-04-03T06:20:13.287Z,0.70
2023-04-03T06:23:15.086Z,0.70
2023-04-03T06:26:16.904Z,0.70
2023-04-03T06:29:19.457Z,0.70
2023-04-03T06:32:21.337Z,0.70
2023-04-03T06:35:24.788Z,0.70
2023-04-03T06:38:26.837Z,0.80
2023-04-03T06:41:28.634Z,0.80
2023-04-03T06:44:30.393Z,0.80
2023-04-03T06:47:32.244Z,0.80
2023-04-03T06:50:34.056Z,0.90
2023-04-03T06:53:36.202Z,1.00
2023-04-03T06:56:38.224Z,1.10
2023-04-03T06:59:40.115Z,1.10
2023-04-03T07:02:41.846Z,1.20
2023-04-03T07:05:45.699Z,1.30
2023-04-03T07:08:49.288Z,1.40
2023-04-03T07:11:51.075Z,1.50
2023-04-03T07:14:52.803Z,1.60
2023-04-03T07:17:54.761Z,1.60
2023-04-03T07:20:56.851Z,1.70
2023-04-03T07:23:58.626Z,1.70
2023-04-03T07:27:00.349Z,1.70
2023-04-03T07:30:02.322Z,1.80
2023-04-03T07:33:04.214Z,1.80
2023-04-03T07:36:08.401Z,1.90
2023-04-03T07:39:10.275Z,2.00
2023-04-03T07:42:13.324Z,2.10
2023-04-03T07:45:15.301Z,2.20
2023-04-03T07:48:18.696Z,2.30
2023-04-03T07:51:20.776Z,2.40
2023-04-03T07:54:22.596Z,2.50
2023-04-03T07:57:24.432Z,2.60
2023-04-03T08:00:26.432Z,2.70
2023-04-03T08:03:28.388Z,2.80
2023-04-03T08:06:44.816Z,3.00
2023-04-03T08:09:48.046Z,3.10
2023-04-03T08:12:50.337Z,3.10
2023-04-03T08:15:52.187Z,3.10
2023-04-03T08:18:54.811Z,3.10
2023-04-03T08:21:57.727Z,3.00
2023-04-03T08:24:59.953Z,2.90
2023-04-03T08:28:03.093Z,2.90
2023-04-03T08:31:07.380Z,2.80
2023-04-03T08:34:09.767Z,2.70
2023-04-03T08:37:11.988Z,2.80
2023-04-03T08:40:17.098Z,3.00
2023-04-03T08:44:00.941Z,3.30
2023-04-03T08:47:18.989Z,3.80
2023-04-03T08:50:36.082Z,4.30
2023-04-03T08:53:43.417Z,4.80
2023-04-03T08:56:46.324Z,5.10
2023-04-03T08:59:48.274Z,5.40
2023-04-03T09:02:56.261Z,5.40
2023-04-03T09:06:25.939Z,5.20
2023-04-03T09:09:39.660Z,5.00
2023-04-03T09:12:48.510Z,4.80
2023-04-03T09:15:50.684Z,4.80
2023-04-03T09:19:11.454Z,4.90
2023-04-03T09:22:45.753Z,5.00
2023-04-03T09:25:54.537Z,5.30
2023-04-03T09:29:01.552Z,5.50
2023-04-03T09:32:20.066Z,5.70
2023-04-03T09:35:40.453Z,5.80
2023-04-03T09:39:09.152Z,5.90
2023-04-03T09:42:44.171Z,6.10
2023-04-03T09:45:49.834Z,6.20
2023-04-03T09:49:07.508Z,6.40
2023-04-03T09:52:27.354Z,6.60
2023-04-03T09:55:32.417Z,6.80
2023-04-03T09:58:49.598Z,6.90
2023-04-03T10:02:19.883Z,7.10
2023-04-03T10:05:39.604Z,7.20
2023-04-03T10:08:41.565Z,7.30
2023-04-03T10:12:06.899Z,7.40
2023-04-03T10:15:21.850Z,7.50
2023-04-03T10:18:30.673Z,7.60
2023-04-03T10:21:51.345Z,7.60
2023-04-03T10:24:59.782Z,7.60
2023-04-03T10:28:13.963Z,7.60
2023-04-03T10:31:21.702Z,7.60
2023-04-03T10:34:33.209Z,7.50
2023-04-03T10:38:00.873Z,7.40
2023-04-03T10:41:18.481Z,7.30
2023-04-03T10:44:32.571Z,7.20
2023-04-03T10:47:46.901Z,7.30
2023-04-03T10:51:01.571Z,7.30
2023-04-03T10:54:08.914Z,7.30
2023-04-03T10:57:13.853Z,7.30
2023-04-03T11:00:32.080Z,7.30
2023-04-03T11:03:42.436Z,7.20
2023-04-03T11:06:54.555Z,7.20
2023-04-03T11:10:06.978Z,7.10
2023-04-03T11:13:21.975Z,7.00
2023-04-03T11:16:33.563Z,7.00
2023-04-03T11:19:44.699Z,6.90
2023-04-03T11:22:55.390Z,6.90
2023-04-03T11:26:29.437Z,6.80
2023-04-03T11:29:36.235Z,6.80
2023-04-03T11:32:54.521Z,6.80
2023-04-03T11:36:22.780Z,6.80
2023-04-03T11:39:39.473Z,6.80
2023-04-03T11:42:46.966Z,6.80
2023-04-03T11:45:57.186Z,6.80
2023-04-03T11:48:59.628Z,6.80
2023-04-03T11:52:01.627Z,6.80
2023-04-03T11:55:27.105Z,6.80
2023-04-03T11:58:36.007Z,6.80
2023-04-03T12:02:24.461Z,6.90
2023-04-03T12:05:30.355Z,6.90
2023-04-03T12:08:35.363Z,6.80
2023-04-03T12:11:37.765Z,6.80
2023-04-03T12:14:39.914Z,6.80
2023-04-03T12:17:41.839Z,6.90
2023-04-03T12:20:54.174Z,6.80
2023-04-03T12:24:09.407Z,6.80
2023-04-03T12:27:42.966Z,6.80
2023-04-03T12:30:45.681Z,6.90
2023-04-03T12:34:19.632Z,6.90
2023-04-03T12:37:57.332Z,7.00
2023-04-03T12:41:17.849Z,7.00
2023-04-03T12:44:43.766Z,7.10
2023-04-03T12:47:46.366Z,7.10
2023-04-03T12:50:49.882Z,7.20
2023-04-03T12:53:57.459Z,7.20
2023-04-03T12:57:11.846Z,7.30
2023-04-03T13:00:21.425Z,7.40
2023-04-03T13:03:28.013Z,7.50
2023-04-03T13:06:40.579Z,7.50
2023-04-03T13:09:42.405Z,7.50
2023-04-03T13:12:59.811Z,7.60
2023-04-03T13:16:11.501Z,7.70
2023-04-03T13:19:19.415Z,7.80
2023-04-03T13:22:29.145Z,7.80
2023-04-03T13:25:34.060Z,7.90
2023-04-03T13:28:37.614Z,7.90
2023-04-03T13:31:40.836Z,7.90
2023-04-03T13:34:47.039Z,7.90
2023-04-03T13:38:00.544Z,8.00
2023-04-03T13:41:24.078Z,8.00
2023-04-03T13:44:37.508Z,8.00
2023-04-03T13:47:41.866Z,8.10
2023-04-03T13:51:01.778Z,8.10
2023-04-03T13:54:20.670Z,8.10
2023-04-03T13:57:23.629Z,8.10
2023-04-03T14:00:39.840Z,8.10
2023-04-03T14:03:47.509Z,8.10
2023-04-03T14:06:50.060Z,8.10
2023-04-03T14:09:53.456Z,8.10
2023-04-03T14:12:56.548Z,8.10
2023-04-03T14:16:05.817Z,8.20
2023-04-03T14:19:21.968Z,8.30
2023-04-03T14:22:26.924Z,8.30
2023-04-03T14:25:29.077Z,8.20
2023-04-03T14:28:32.900Z,8.10
2023-04-03T14:31:34.964Z,7.90
2023-04-03T14:34:36.886Z,7.70
2023-04-03T14:37:38.838Z,7.70
2023-04-03T14:40:41.081Z,7.70
2023-04-03T14:43:43.651Z,7.70
2023-04-03T14:46:56.267Z,7.70
2023-04-03T14:50:04.035Z,7.70
2023-04-03T14:53:05.857Z,7.60
2023-04-03T14:56:27.520Z,7.50
2023-04-03T14:59:31.547Z,7.40
2023-04-03T15:02:35.951Z,7.20
2023-04-03T15:05:38.478Z,7.10
2023-04-03T15:08:42.144Z,7.00
2023-04-03T15:11:43.981Z,7.10
2023-04-03T15:14:52.429Z,7.10
2023-04-03T15:18:00.516Z,7.10
2023-04-03T15:21:02.909Z,7.10
2023-04-03T15:24:05.243Z,7.10
2023-04-03T15:27:07.452Z,7.10
2023-04-03T15:30:14.998Z,7.00
2023-04-03T15:33:16.949Z,6.90
2023-04-03T15:39:26.660Z,6.80
2023-04-03T15:42:28.432Z,6.70
2023-04-03T15:45:32.328Z,6.60
2023-04-03T15:48:34.230Z,6.60
2023-04-03T15:51:36.704Z,6.60
2023-04-03T15:54:38.493Z,6.60
2023-04-03T16:00:47.083Z,6.50
2023-04-03T16:03:49.308Z,6.40
2023-04-03T16:06:51.436Z,6.40
2023-04-03T16:09:53.441Z,6.40
2023-04-03T16:12:55.344Z,6.40
2023-04-03T16:15:57.664Z,6.50
2023-04-03T16:18:59.633Z,6.50
2023-04-03T16:22:01.600Z,6.50
2023-04-03T16:25:04.183Z,6.50
2023-04-03T16:28:06.293Z,6.40
2023-04-03T16:31:08.660Z,6.30
2023-04-03T16:34:10.715Z,6.10
2023-04-03T16:37:12.544Z,6.00
2023-04-03T16:40:15.481Z,5.90
2023-04-03T16:43:17.370Z,5.90
2023-04-03T16:46:19.227Z,5.90
2023-04-03T16:49:21.260Z,5.80
2023-04-03T16:52:23.060Z,5.70
2023-04-03T16:55:25.087Z,5.70
2023-04-03T16:58:26.865Z,5.60
2023-04-03T17:01:28.791Z,5.50
2023-04-03T17:04:30.523Z,5.40
2023-04-03T17:07:32.499Z,5.30
2023-04-03T17:10:36.367Z,5.20
2023-04-03T17:13:38.391Z,5.20
2023-04-03T17:16:41.184Z,5.20
2023-04-03T17:19:44.479Z,5.20
2023-04-03T17:22:46.383Z,5.10
2023-04-03T17:25:48.127Z,5.10
2023-04-03T17:28:49.984Z,5.00
2023-04-03T17:31:51.923Z,4.90
2023-04-03T17:34:53.796Z,4.80
2023-04-03T17:37:55.644Z,4.80
2023-04-03T17:40:58.705Z,4.70
2023-04-03T17:44:00.600Z,4.70
2023-04-03T17:47:03.102Z,4.60
2023-04-03T17:50:06.085Z,4.60
2023-04-03T17:53:07.926Z,4.60
2023-04-03T17:56:15.330Z,4.60
2023-04-03T17:59:18.247Z,4.60
2023-04-03T18:02:20.527Z,4.60
2023-04-03T18:05:22.373Z,4.60
2023-04-03T18:08:24.208Z,4.60
2023-04-03T18:11:28.130Z,4.50
2023-04-03T18:14:30.363Z,4.50
2023-04-03T18:17:32.198Z,4.50
2023-04-03T18:20:34.155Z,4.40
2023-04-03T18:23:39.711Z,4.40
2023-04-03T18:26:44.503Z,4.30
2023-04-03T18:29:50.475Z,4.30
2023-04-03T18:32:52.587Z,4.30
2023-04-03T18:35:54.446Z,4.30
2023-04-03T18:38:56.654Z,4.20
2023-04-03T18:42:03.818Z,4.20
2023-04-03T18:45:06.493Z,4.20
2023-04-03T18:48:08.564Z,4.20
2023-04-03T18:51:12.057Z,4.10
2023-04-03T18:54:13.869Z,4.10
2023-04-03T18:57:15.700Z,4.00
2023-04-03T19:00:18.730Z,4.00
2023-04-03T19:03:20.737Z,4.00
2023-04-03T19:06:22.594Z,4.00
2023-04-03T19:09:26.298Z,3.90
2023-04-03T19:12:28.143Z,3.90
2023-04-03T19:15:30.205Z,3.90
2023-04-03T19:18:32.296Z,3.90
2023-04-03T19:21:35.226Z,3.90
2023-04-03T19:24:37.268Z,3.90
2023-04-03T19:27:39.716Z,3.90
2023-04-03T19:30:42.149Z,3.90
2023-04-03T19:33:45.066Z,3.90
2023-04-03T19:36:47.408Z,3.80
2023-04-03T19:39:49.196Z,3.80
2023-04-03T19:42:52.295Z,3.70
2023-04-03T19:45:54.261Z,3.70
2023-04-03T19:48:56.425Z,3.70
2023-04-03T19:51:58.153Z,3.60
2023-04-03T19:54:59.921Z,3.60
2023-04-03T19:58:02.380Z,3.60
2023-04-03T20:01:04.197Z,3.50
2023-04-03T20:04:06.624Z,3.50
2023-04-03T20:07:08.405Z,3.50
2023-04-03T20:10:12.045Z,3.50
2023-04-03T20:13:14.025Z,3.50
2023-04-03T20:16:16.084Z,3.60
2023-04-03T20:19:18.061Z,3.50
2023-04-03T20:22:19.883Z,3.50
2023-04-03T20:25:43.751Z,3.50
2023-04-03T20:28:43.955Z,3.50
2023-04-03T20:31:46.824Z,3.50
2023-04-03T20:34:57.434Z,3.50
2023-04-03T20:38:07.308Z,3.50
2023-04-03T20:41:09.371Z,3.40
2023-04-03T20:44:11.108Z,3.30
2023-04-03T20:47:14.207Z,3.20
2023-04-03T20:50:16.152Z,3.20
2023-04-03T20:53:19.045Z,3.10
2023-04-03T20:56:20.974Z,3.00
2023-04-03T20:59:23.087Z,3.00
2023-04-03T21:02:25.001Z,2.90
2023-04-03T21:05:30.406Z,2.90
2023-04-03T21:09:10.000Z,2.90
2023-04-03T21:12:49.738Z,2.80
2023-04-03T21:16:00.483Z,2.70
2023-04-03T21:19:10.003Z,2.70
2023-04-03T21:22:12.636Z,2.60
2023-04-03T21:25:14.466Z,2.60
2023-04-03T21:28:17.287Z,2.60
2023-04-03T21:31:21.813Z,2.60
2023-04-03T21:34:26.370Z,2.50
2023-04-03T21:37:28.132Z,2.50
2023-04-03T21:40:31.719Z,2.50
2023-04-03T21:43:33.511Z,2.50
2023-04-03T21:46:37.572Z,2.50
2023-04-03T21:49:39.343Z,2.50
2023-04-03T21:52:41.165Z,2.60
2023-04-03T21:55:42.972Z,2.50
2023-04-03T21:58:45.616Z,2.50
2023-04-03T22:01:47.439Z,2.40
2023-04-03T22:04:49.185Z,2.40
2023-04-03T22:07:50.894Z,2.40
2023-04-03T22:10:54.006Z,2.40
2023-04-03T22:13:56.120Z,2.40
2023-04-03T22:16:58.276Z,2.40
2023-04-03T22:20:00.580Z,2.40
2023-04-03T22:23:02.702Z,2.40
2023-04-03T22:26:05.744Z,2.30
2023-04-03T22:29:07.546Z,2.40
2023-04-03T22:32:09.308Z,2.40
2023-04-03T22:35:11.081Z,2.40
2023-04-03T22:38:14.503Z,2.40
2023-04-03T22:41:16.494Z,2.30
2023-04-03T22:44:18.257Z,2.40
2023-04-03T22:47:20.115Z,2.40
2023-04-03T22:50:22.050Z,2.40
2023-04-03T22:53:24.006Z,2.40
2023-04-03T22:56:26.336Z,2.40
2023-04-03T22:59:28.252Z,2.50
2023-04-03T23:02:31.960Z,2.40
2023-04-03T23:05:33.782Z,2.40
2023-04-03T23:08:41.028Z,2.40
2023-04-03T23:11:43.606Z,2.40
2023-04-03T23:14:45.349Z,2.40
2023-04-03T23:17:49.269Z,2.40
2023-04-03T23:20:51.988Z,2.30
2023-04-03T23:23:53.852Z,2.30
2023-04-03T23:26:55.616Z,2.30
2023-04-03T23:29:57.653Z,2.30
2023-04-03T23:32:59.546Z,2.30
2023-04-03T23:36:06.720Z,2.30
2023-04-03T23:39:08.650Z,2.30
2023-04-03T23:42:12.551Z,2.30
2023-04-03T23:45:14.352Z,2.30
2023-04-03T23:48:16.296Z,2.30
2023-04-03T23:51:18.147Z,2.30
2023-04-03T23:54:20.418Z,2.30
2023-04-03T23:57:22.245Z,2.30
